Greenbrae, Nevada
Current Conditions -  °F | °C
As of 10:55 AM on Saturday 25 Oct 2014 (Local Time) from KRNO Reporting Station
Scattered Clouds Scattered Clouds  
Wind Chill: 66°   Ceiling: Unl
Heat Index: 66°   Visibility: 10mi
Dew Point: 27°   Wind: 35mph
Humidity: 23%   Direction: 180°S
Pressure: 29.94"   Gusts: 43mph
Location:  39.5386°N, 119.749°W
Report Text: KRNO 251755Z 18030G37KT 10SM FEW070 FEW100 FEW140 SCT200 19/M03 A2994 RMK AO2 PK WND 18042/1702 SLP094 ACSL DSNT N-E T01891028 10189 20150 53001
Loading
Personal Weather Stations






























Interactive Weather Map
Tropical Storm Tracking
New forecast layout! Learn more

10-Day Weather Forecast

Advertisements
Track Severe Weather on mobile